SIVJ weather

Cirrus Sociedade Aerodesportiva Airport
Jaboticatubas, Minas Gerais, Brazil

Public forecast

Using degrees Celsius for public forecast. Weather courtesy of forecast.io.

METAR (pilot weather report)

Closest report is Tancredo Neves International Airport, 11.1 nm (20.5 km) SSW. Retrieved 2019/09/15 04:00 UTC (33 minutes ago):

SBCF 150400Z 10006KT CAVOK 20/12 Q1021

TAF (pilot weather forecast)

Closest forecast is Tancredo Neves International Airport, 11.1 nm (20.5 km) SSW. Retrieved 2019/09/15 00:00 UTC (5 hours ago):

TAF SBCF 142200Z 1500/1524 08010KT CAVOK TN19/1507Z TX32/1518Z BECMG 1505/1507 15015KT 9999 SCT030 BECMG 1517/1519 09010KT CAVOK RMK PEN